Cascade Locks, OR

4:33 AM PST on January 26, 2015 (GMT -0800)
Stevenson, WA | Change Station
CLOSE
Current Station
Personal Weather Station
Location: Stevenson, WA
Elevation: 279 ft
Nearby Weather Stations

Elev 279 ft 45.70 °N, 121.90 °W | Updated 1 second ago

Mostly Cloudy
Mostly Cloudy
44.4 °F
Feels Like 44 °F
N
0.2
Wind Variable Wind from WSW
Gusts 2.5 mph

Today
High -- | Low -- °F
--% Chance of Precip.
Yesterday
High -- | Low -- °F
Precip. -- in
7:35 AM 5:04 PM
Waxing Crescent, 42% visible
Pressure 30.00 in
Visibility 10.0 miles
Clouds Clear
Windchill 44 °F
Dew Point 42 °F
Humidity 90%
Rainfall 0.00 in
Snow Depth Not available.
UV 0.0 out of 12
Pollen 2.60 out of 12
Air Quality Not available.
Flu Activity Not available.
METAR KTTD 261153Z AUTO 08014G21KT 10SM CLR 09/06 A3000 RMK AO2 WSHFT 1111 SLP158 T00940056 10117 20061 53004

More Conditions Fewer Conditions

Pressure 30.00 in
Visibility 10.0 miles
Clouds Clear
Windchill 44 °F
Dew Point 42 °F
Humidity 90%
Rainfall 0.00 in
Snow Depth Not available.
UV 0.0 out of 12
Pollen 2.60 out of 12
Air Quality Not available.
Flu Activity Not available.
METAR KTTD 261153Z AUTO 08014G21KT 10SM CLR 09/06 A3000 RMK AO2 WSHFT 1111 SLP158 T00940056 10117 20061 53004

More Conditions Fewer Conditions

10-Day Weather Forecast

Almanac

Astronomy

Jan. 26, 2015 Rise Set
Actual Time
Civil Twilight
Nautical Twilight
Astronomical Twilight
Moon
Length of Visible Light
Length of Day
Tomorrow will be .
, % of the Moon is Illuminated

Today's Extremes

State Highs State Lows

Community

WunderPhotos

Upload Photos

1,790,175 photos uploaded!

WunderBlogs® & News

Nearby

Air Quality

  Air Quality AQ Index Pollutant
Not available.

Snow Depth

Station Depth Elevation

Earthquake Activity

City Distance Mag. Time & Date
Minimum magnitude displayed is 2.5.

Coastal Water Temperatures

Place Temperature

Nearby Weather Stations